KSYN/SYN METAR and TAF weather

Enter ICAO airport designator
Station Type Date Time Source
KSYN METAR 2019/04/25 17:59 UTC NOAA

KSYN 251759Z AUTO 33010KT 10SM CLR 17/05 A2983 RMK AO2


Station Type Date Time Source
KSYN Decoded METAR 2019/04/25 17:59 UTC NOAA

Stanton, Stanton Airfield, MN, United States (KSYN) 44-28-31N 093-00-58W
Apr 25, 2019 - 01:59 PM EDT / 2019.04.25 1759 UTC
Wind: from the NNW (330 degrees) at 12 MPH (10 KT):0
Visibility: 10 mile(s):0
Sky conditions: clear
Temperature: 62 F (17 C)
Dew Point: 41 F (5 C)
Relative Humidity: 45%
Pressure (altimeter): 29.83 in. Hg (1010 hPa)
ob: KSYN 251759Z AUTO 33010KT 10SM CLR 17/05 A2983 RMK AO2
cycle: 18

Station Type Date Time Source
KSYN TAF UTC NOAA

Error!

Example: see airport list